Cosco Aden — VRKF9 — position and weather

sailwx.info

Track history (hours):
 
Tides and Currents Weather Stations Pressure Air Temp Water Temp Dewpoint Dewpoint Depression Visibility Wind Speed Wind Dir Waves Ship Positions

Cosco Aden

Last reported at 2017-Oct-15 21:02 UTC. Time now 2017-Oct-20 03:50 UTC.
Position N 22°51' E 119°56'.

Length 261 m; draft 10.8 m.

Type: Ship (hazmat cat A). MMSI: 477765900.

Date/timePositionNaut miles runAvg speedWind from/ knotsBaromVisibWave heightAir tempDewpointWater temp
2017-Oct-15 21:02N 22°51' E 119°56'116.9
2017-Oct-15 20:59N 22°50' E 119°56'816.6
2017-Oct-15 20:31N 22°42' E 119°56'816.5
2017-Oct-15 20:00N 22°34' E 119°56'816.3
2017-Oct-15 19:30N 22°25' E 119°56'916.4
2017-Oct-15 18:58N 22°17' E 119°56'  
2017-Oct-10 23:57N 01°16' E 103°47'0 0.0
2017-Oct-10 23:30N 01°16' E 103°47'0 0.0
2017-Oct-10 23:00N 01°16' E 103°47'0 0.0
2017-Oct-10 22:27N 01°16' E 103°47'0 0.0
2017-Oct-10 21:57N 01°16' E 103°47'0 0.0
2017-Oct-10 21:30N 01°16' E 103°47'0 0.0
2017-Oct-10 21:00N 01°16' E 103°47'0 0.0
2017-Oct-10 20:27N 01°16' E 103°47'0 0.0
2017-Oct-10 19:57N 01°16' E 103°47'0 0.0
2017-Oct-10 19:27N 01°16' E 103°47'0 0.0
2017-Oct-10 18:57N 01°16' E 103°47'0 0.0
2017-Oct-10 18:30N 01°16' E 103°47'0 0.0
2017-Oct-10 17:57N 01°16' E 103°47'0 0.0
2017-Oct-10 17:27N 01°16' E 103°47'0 0.0
2017-Oct-10 17:00N 01°16' E 103°47'1315.3
2017-Oct-10 16:07N 01°16' E 104°01'0 3.1
2017-Oct-10 16:00N 01°16' E 104°01'1 2.8
2017-Oct-10 15:30N 01°16' E 104°02'1 2.8
2017-Oct-10 14:59N 01°16' E 104°04'1715.9
2017-Oct-10 13:57N 01°16' E 103°47'0 0.0
2017-Oct-10 13:30N 01°16' E 103°47'0 0.0
2017-Oct-10 12:57N 01°16' E 103°47'0 0.0
2017-Oct-10 12:30N 01°16' E 103°47'0 0.0
2017-Oct-10 11:57N 01°16' E 103°47'0 0.0
2017-Oct-10 11:30N 01°16' E 103°47'0 0.0
2017-Oct-10 10:57N 01°16' E 103°47'0 0.0
2017-Oct-10 10:30N 01°16' E 103°47'1 1.1
2017-Oct-10 10:00N 01°16' E 103°47'2 4.6
2017-Oct-10 09:31N 01°14' E 103°48'4 7.6
2017-Oct-10 09:00N 01°13' E 103°51'4 8.3
2017-Oct-10 08:30N 01°14' E 103°55'3 6.2
2017-Oct-10 08:01N 01°15' E 103°58'510.8
2017-Oct-10 07:30N 01°16' E 104°03'612.4
2017-Oct-10 06:59N 01°17' E 104°10'612.2
2017-Oct-10 06:31N 01°18' E 104°15'711.9
2017-Oct-10 05:54N 01°21' E 104°22'  
Track history (hours):
 
Tides and Currents Weather Stations Pressure Air Temp Water Temp Dewpoint Dewpoint Depression Visibility Wind Speed Wind Dir Waves Ship Positions

Cosco Aden

Last reported at 2017-Oct-15 21:02 UTC. Time now 2017-Oct-20 03:50 UTC.
Position N 22°51' E 119°56'.

Length 261 m; draft 10.8 m.

Type: Ship (hazmat cat A). MMSI: 477765900.

Date/timePositionNaut miles runAvg speedWind from/ knotsBaromVisibWave heightAir tempDewpointWater temp
2017-Oct-15 21:02N 22°51' E 119°56'116.9
2017-Oct-15 20:59N 22°50' E 119°56'816.6
2017-Oct-15 20:31N 22°42' E 119°56'816.5
2017-Oct-15 20:00N 22°34' E 119°56'816.3
2017-Oct-15 19:30N 22°25' E 119°56'916.4
2017-Oct-15 18:58N 22°17' E 119°56'  
2017-Oct-10 23:57N 01°16' E 103°47'0 0.0
2017-Oct-10 23:30N 01°16' E 103°47'0 0.0
2017-Oct-10 23:00N 01°16' E 103°47'0 0.0
2017-Oct-10 22:27N 01°16' E 103°47'0 0.0
2017-Oct-10 21:57N 01°16' E 103°47'0 0.0
2017-Oct-10 21:30N 01°16' E 103°47'0 0.0
2017-Oct-10 21:00N 01°16' E 103°47'0 0.0
2017-Oct-10 20:27N 01°16' E 103°47'0 0.0
2017-Oct-10 19:57N 01°16' E 103°47'0 0.0
2017-Oct-10 19:27N 01°16' E 103°47'0 0.0
2017-Oct-10 18:57N 01°16' E 103°47'0 0.0
2017-Oct-10 18:30N 01°16' E 103°47'0 0.0
2017-Oct-10 17:57N 01°16' E 103°47'0 0.0
2017-Oct-10 17:27N 01°16' E 103°47'0 0.0
2017-Oct-10 17:00N 01°16' E 103°47'1315.3
2017-Oct-10 16:07N 01°16' E 104°01'0 3.1
2017-Oct-10 16:00N 01°16' E 104°01'1 2.8
2017-Oct-10 15:30N 01°16' E 104°02'1 2.8
2017-Oct-10 14:59N 01°16' E 104°04'1715.9
2017-Oct-10 13:57N 01°16' E 103°47'0 0.0
2017-Oct-10 13:30N 01°16' E 103°47'0 0.0
2017-Oct-10 12:57N 01°16' E 103°47'0 0.0
2017-Oct-10 12:30N 01°16' E 103°47'0 0.0
2017-Oct-10 11:57N 01°16' E 103°47'0 0.0
2017-Oct-10 11:30N 01°16' E 103°47'0 0.0
2017-Oct-10 10:57N 01°16' E 103°47'0 0.0
2017-Oct-10 10:30N 01°16' E 103°47'1 1.1
2017-Oct-10 10:00N 01°16' E 103°47'2 4.6
2017-Oct-10 09:31N 01°14' E 103°48'4 7.6
2017-Oct-10 09:00N 01°13' E 103°51'4 8.3
2017-Oct-10 08:30N 01°14' E 103°55'3 6.2
2017-Oct-10 08:01N 01°15' E 103°58'510.8
2017-Oct-10 07:30N 01°16' E 104°03'612.4
2017-Oct-10 06:59N 01°17' E 104°10'612.2
2017-Oct-10 06:31N 01°18' E 104°15'711.9
2017-Oct-10 05:54N 01°21' E 104°22'  

Dump ship's entire track history